Time;durP1;ratioP1;P1;durP2;ratioP2;P2;SDS_P1;SDS_P2;PMS_P1;PMS_P2;Temp;Humidity;BMP_temperature;BMP_pressure;BME280_temperature;BME280_humidity;BME280_pressure;Samples;Min_cycle;Max_cycle;Signal;HPM_P1;HPM_P2
2023/07/23 00:02:24;;;;;;;17.55;16.33;;;13.90;78.20;;;;;;5103172;28;20040;-73
2023/07/23 00:04:49;;;;;;;17.15;15.98;;;13.90;78.00;;;;;;5107871;28;20028;-73
2023/07/23 00:07:15;;;;;;;16.98;15.75;;;13.90;78.00;;;;;;5073019;28;20075;-73
2023/07/23 00:09:41;;;;;;;17.38;16.25;;;13.90;78.10;;;;;;5103958;28;20039;-73
2023/07/23 00:12:06;;;;;;;16.80;15.70;;;13.90;77.90;;;;;;5103286;28;20043;-72
2023/07/23 00:14:32;;;;;;;17.58;16.23;;;13.90;78.20;;;;;;5101998;28;20515;-73
2023/07/23 00:16:58;;;;;;;17.88;16.65;;;14.00;78.70;;;;;;5091241;28;20035;-73
2023/07/23 00:19:23;;;;;;;16.92;15.82;;;14.00;77.50;;;;;;5106237;28;20032;-73
2023/07/23 00:21:49;;;;;;;17.42;15.90;;;14.00;77.70;;;;;;5105669;28;20024;-73
2023/07/23 00:24:17;;;;;;;17.67;16.25;;;14.00;78.00;;;;;;5103846;28;20020;-72
2023/07/23 00:26:43;;;;;;;16.73;15.65;;;14.00;77.70;;;;;;5102665;28;20032;-72
2023/07/23 00:29:09;;;;;;;17.75;16.50;;;13.90;77.80;;;;;;5102626;28;20055;-72
2023/07/23 00:31:35;;;;;;;17.20;15.80;;;13.90;78.70;;;;;;5105144;28;20500;-72
2023/07/23 00:34:03;;;;;;;17.52;16.35;;;13.90;78.20;;;;;;5108953;28;20032;-73
2023/07/23 00:36:29;;;;;;;17.40;15.82;;;13.90;78.50;;;;;;5103226;28;20374;-72
2023/07/23 00:38:54;;;;;;;16.98;15.88;;;14.00;78.80;;;;;;5108438;27;20105;-73
2023/07/23 00:41:20;;;;;;;17.17;15.98;;;13.90;78.40;;;;;;5105180;28;20385;-73
2023/07/23 00:43:46;;;;;;;17.10;15.90;;;13.90;78.60;;;;;;5107175;28;20389;-73
2023/07/23 00:46:12;;;;;;;18.33;16.38;;;13.90;78.90;;;;;;5106699;28;20497;-73
2023/07/23 00:48:37;;;;;;;17.23;15.93;;;13.90;79.20;;;;;;5105156;28;20058;-72
2023/07/23 00:51:03;;;;;;;16.50;15.32;;;13.90;79.10;;;;;;5086291;28;20055;-73
2023/07/23 00:53:29;;;;;;;17.23;15.93;;;13.80;79.00;;;;;;5105175;27;20057;-72
2023/07/23 00:55:56;;;;;;;16.80;15.60;;;13.90;79.20;;;;;;5104511;28;20113;-72
2023/07/23 00:58:22;;;;;;;17.35;15.82;;;13.90;79.00;;;;;;5104185;28;20043;-72
2023/07/23 01:00:49;;;;;;;17.27;16.17;;;13.90;79.10;;;;;;5082233;28;20543;-72
2023/07/23 01:03:14;;;;;;;16.65;15.35;;;13.90;79.20;;;;;;5105477;28;20028;-73
2023/07/23 01:05:45;;;;;;;16.63;15.52;;;13.90;79.10;;;;;;5086368;28;20821;-72
2023/07/23 01:08:11;;;;;;;16.00;14.90;;;13.90;79.40;;;;;;5106786;28;20062;-72
2023/07/23 01:10:37;;;;;;;16.73;15.63;;;13.90;79.20;;;;;;5103525;28;20550;-72
2023/07/23 01:13:04;;;;;;;17.33;16.20;;;13.80;79.70;;;;;;5086375;28;20035;-72
2023/07/23 01:15:31;;;;;;;16.75;15.65;;;13.70;80.00;;;;;;5105064;28;20036;-72
2023/07/23 01:17:59;;;;;;;17.70;16.45;;;13.70;80.70;;;;;;5106167;28;20541;-71
2023/07/23 01:20:24;;;;;;;17.65;16.20;;;13.70;80.70;;;;;;5107463;28;20028;-72
2023/07/23 01:22:50;;;;;;;17.70;16.33;;;13.80;80.80;;;;;;5108742;28;20412;-72
2023/07/23 01:25:16;;;;;;;18.90;17.60;;;13.70;81.00;;;;;;5110988;28;20043;-72
2023/07/23 01:27:41;;;;;;;17.80;16.60;;;13.70;81.50;;;;;;5110209;28;20092;-71
2023/07/23 01:30:10;;;;;;;17.95;16.75;;;13.70;81.70;;;;;;5108257;28;20473;-72
2023/07/23 01:32:37;;;;;;;18.40;16.67;;;13.70;81.50;;;;;;5106451;28;20126;-72
2023/07/23 01:35:14;;;;;;;17.35;16.15;;;13.70;81.30;;;;;;5105138;28;20066;-72
2023/07/23 01:37:41;;;;;;;17.65;16.45;;;13.70;81.20;;;;;;5107598;28;20086;-73
2023/07/23 01:40:07;;;;;;;17.50;16.23;;;13.70;81.10;;;;;;5107854;28;20485;-72
2023/07/23 01:42:34;;;;;;;17.52;16.15;;;13.60;81.20;;;;;;5102894;28;20027;-72
2023/07/23 01:45:06;;;;;;;17.77;16.58;;;13.60;81.60;;;;;;5106978;28;20070;-73
2023/07/23 01:47:32;;;;;;;16.98;15.85;;;13.50;81.70;;;;;;5105187;28;20059;-73
2023/07/23 01:49:57;;;;;;;18.95;17.55;;;13.50;82.40;;;;;;5103282;28;20505;-72
2023/07/23 01:52:23;;;;;;;18.75;17.38;;;13.50;82.20;;;;;;5100772;28;20035;-73
2023/07/23 01:54:49;;;;;;;19.85;18.55;;;13.40;82.70;;;;;;5106028;28;20061;-72
2023/07/23 01:57:14;;;;;;;20.30;18.85;;;13.40;83.30;;;;;;5085748;28;20035;-72
2023/07/23 01:59:40;;;;;;;23.52;21.77;;;13.40;83.50;;;;;;5108938;28;20800;-72
2023/07/23 02:02:09;;;;;;;19.70;18.23;;;13.40;83.90;;;;;;5086503;28;20550;-72
2023/07/23 02:04:35;;;;;;;19.98;18.67;;;13.40;84.00;;;;;;5105247;28;20047;-72
2023/07/23 02:07:01;;;;;;;21.58;19.98;;;13.40;83.80;;;;;;5107750;27;20429;-73
2023/07/23 02:09:26;;;;;;;22.52;21.10;;;13.30;83.90;;;;;;5110954;28;20035;-72
2023/07/23 02:11:52;;;;;;;22.13;19.98;;;13.30;84.30;;;;;;5108083;28;20044;-72
2023/07/23 02:14:18;;;;;;;22.33;20.63;;;13.40;84.10;;;;;;5109625;28;20032;-72
2023/07/23 02:16:43;;;;;;;19.95;18.70;;;13.40;84.20;;;;;;5111442;28;20040;-72
2023/07/23 02:19:09;;;;;;;22.27;20.48;;;13.40;84.50;;;;;;5090950;28;20032;-72
2023/07/23 02:21:35;;;;;;;19.88;18.65;;;13.40;84.60;;;;;;5108285;28;20035;-72
2023/07/23 02:24:00;;;;;;;21.88;20.58;;;13.30;84.80;;;;;;5104782;28;20512;-72
2023/07/23 02:26:26;;;;;;;22.63;21.15;;;13.30;85.20;;;;;;5109970;28;20085;-72
2023/07/23 02:28:51;;;;;;;21.73;20.15;;;13.30;85.40;;;;;;5111084;28;20027;-72
2023/07/23 02:31:17;;;;;;;23.23;21.83;;;13.20;85.30;;;;;;5109765;28;20047;-72
2023/07/23 02:33:43;;;;;;;22.42;20.83;;;13.20;85.10;;;;;;5104990;28;20107;-73
2023/07/23 02:36:09;;;;;;;21.25;19.75;;;13.20;85.20;;;;;;5107906;27;20063;-72
2023/07/23 02:38:35;;;;;;;20.65;19.20;;;13.20;85.50;;;;;;5087717;28;20047;-72
2023/07/23 02:41:01;;;;;;;21.65;20.20;;;13.10;85.60;;;;;;5107571;28;20032;-72
2023/07/23 02:43:27;;;;;;;20.88;19.52;;;13.10;85.90;;;;;;5111164;28;20027;-71
2023/07/23 02:45:53;;;;;;;21.27;19.48;;;13.10;86.40;;;;;;5109026;28;20027;-72
2023/07/23 02:48:19;;;;;;;21.83;20.50;;;13.00;86.40;;;;;;5110006;28;20091;-72
2023/07/23 02:50:44;;;;;;;22.92;21.23;;;13.00;86.80;;;;;;5110228;27;20393;-72
2023/07/23 02:53:10;;;;;;;22.15;20.65;;;13.00;87.10;;;;;;5109281;28;20028;-72
2023/07/23 02:55:36;;;;;;;23.58;22.10;;;13.00;87.50;;;;;;5110212;28;20421;-72
2023/07/23 02:58:03;;;;;;;22.08;20.38;;;13.00;87.10;;;;;;5109704;28;20028;-73
2023/07/23 03:00:30;;;;;;;22.23;20.52;;;13.00;87.00;;;;;;5106639;28;20703;-72
2023/07/23 03:02:56;;;;;;;21.65;20.15;;;13.00;87.40;;;;;;5107357;28;20508;-72
2023/07/23 03:05:24;;;;;;;22.55;21.02;;;13.00;87.10;;;;;;5110358;28;20031;-73
2023/07/23 03:07:51;;;;;;;22.88;21.42;;;12.90;87.50;;;;;;5106207;28;20036;-72
2023/07/23 03:10:17;;;;;;;24.35;22.65;;;12.90;87.70;;;;;;5106732;28;20034;-72
2023/07/23 03:12:43;;;;;;;23.88;22.08;;;12.90;88.00;;;;;;5105544;28;20032;-72
2023/07/23 03:15:09;;;;;;;23.40;22.02;;;13.00;88.20;;;;;;5103257;28;20157;-72
2023/07/23 03:17:34;;;;;;;23.90;22.40;;;12.90;88.00;;;;;;5100467;28;20051;-72
2023/07/23 03:20:00;;;;;;;25.35;23.58;;;12.90;87.80;;;;;;5103388;28;20394;-72
2023/07/23 03:22:26;;;;;;;26.35;24.77;;;12.90;88.10;;;;;;5110668;28;20034;-72
2023/07/23 03:24:51;;;;;;;25.80;24.20;;;12.90;88.60;;;;;;5108829;28;20028;-72
2023/07/23 03:27:17;;;;;;;28.85;26.90;;;12.90;88.30;;;;;;5109507;28;20594;-72
2023/07/23 03:29:42;;;;;;;28.15;26.60;;;13.00;88.80;;;;;;5109420;28;20565;-71
2023/07/23 03:32:08;;;;;;;25.73;24.35;;;13.00;88.80;;;;;;5091995;27;20516;-72
2023/07/23 03:34:34;;;;;;;24.65;23.08;;;13.00;88.50;;;;;;5107986;27;20401;-72
2023/07/23 03:36:59;;;;;;;27.23;25.42;;;12.90;88.50;;;;;;5106300;28;20032;-72
2023/07/23 03:39:25;;;;;;;26.55;25.00;;;13.00;88.80;;;;;;5106875;28;20028;-72
2023/07/23 03:41:51;;;;;;;27.52;25.80;;;13.00;88.70;;;;;;5108108;28;20074;-72
2023/07/23 03:44:16;;;;;;;28.90;27.38;;;12.90;88.50;;;;;;5108963;28;20028;-72
2023/07/23 03:46:44;;;;;;;26.92;25.55;;;13.00;88.80;;;;;;5107609;28;20461;-72
2023/07/23 03:49:11;;;;;;;32.05;30.05;;;13.10;88.20;;;;;;5109630;27;20031;-72
2023/07/23 03:51:36;;;;;;;24.73;22.85;;;13.10;88.30;;;;;;5107289;28;20596;-72
2023/07/23 03:54:02;;;;;;;29.45;27.83;;;13.10;87.60;;;;;;5102689;28;20155;-72
2023/07/23 03:56:27;;;;;;;28.40;26.90;;;13.10;87.80;;;;;;5106190;28;20066;-72
2023/07/23 03:58:53;;;;;;;22.27;20.63;;;13.10;87.80;;;;;;5075436;28;20031;-72
2023/07/23 04:01:19;;;;;;;23.77;22.23;;;13.10;87.70;;;;;;5091205;28;20539;-72
2023/07/23 04:03:45;;;;;;;22.95;21.70;;;13.10;87.60;;;;;;5107773;27;20035;-72
2023/07/23 04:06:11;;;;;;;22.17;20.75;;;13.10;87.40;;;;;;5109283;27;20029;-72
2023/07/23 04:08:36;;;;;;;26.40;24.77;;;13.00;87.40;;;;;;5106472;28;20516;-72
2023/07/23 04:11:02;;;;;;;23.42;21.77;;;13.10;88.00;;;;;;5105515;28;20024;-72
2023/07/23 04:13:28;;;;;;;25.63;23.92;;;13.00;87.40;;;;;;5091739;28;20115;-72
2023/07/23 04:15:53;;;;;;;27.08;25.40;;;13.10;87.70;;;;;;5104884;28;20113;-72
2023/07/23 04:18:19;;;;;;;20.90;19.58;;;13.20;87.50;;;;;;5108166;27;20493;-72
2023/07/23 04:20:44;;;;;;;22.00;20.52;;;13.20;87.10;;;;;;5105974;28;20099;-72
2023/07/23 04:23:10;;;;;;;21.40;19.90;;;13.30;86.80;;;;;;5104269;28;20046;-72
2023/07/23 04:25:36;;;;;;;20.15;18.85;;;13.40;87.00;;;;;;5107799;28;20539;-72
2023/07/23 04:28:03;;;;;;;19.48;18.23;;;13.40;86.30;;;;;;5106844;28;20046;-72
2023/07/23 04:30:30;;;;;;;19.00;17.70;;;13.50;86.20;;;;;;5105885;28;20112;-72
2023/07/23 04:32:55;;;;;;;19.67;18.52;;;13.50;85.90;;;;;;5107645;28;20070;-72
2023/07/23 04:35:21;;;;;;;24.65;22.77;;;13.60;85.80;;;;;;5107598;28;20478;-72
2023/07/23 04:37:47;;;;;;;18.85;17.35;;;13.60;85.60;;;;;;5082426;28;20047;-72
2023/07/23 04:40:12;;;;;;;17.88;16.55;;;13.70;85.10;;;;;;5103938;28;20031;-72
2023/07/23 04:42:38;;;;;;;18.90;17.60;;;13.80;84.50;;;;;;5089947;28;20032;-72
2023/07/23 04:45:04;;;;;;;18.17;16.88;;;13.80;84.80;;;;;;5108224;28;20035;-72
2023/07/23 04:47:30;;;;;;;18.20;16.90;;;13.90;84.00;;;;;;5104576;28;20130;-72
2023/07/23 04:49:57;;;;;;;18.27;16.98;;;14.00;84.40;;;;;;5108849;28;20123;-72
2023/07/23 04:52:23;;;;;;;18.75;17.35;;;14.10;83.80;;;;;;5088836;28;20036;-72
2023/07/23 04:54:49;;;;;;;17.30;16.20;;;14.10;83.60;;;;;;5087158;28;20028;-72
2023/07/23 04:57:14;;;;;;;17.75;16.35;;;14.20;83.60;;;;;;5107429;28;20036;-72
2023/07/23 04:59:40;;;;;;;17.45;16.15;;;14.20;83.20;;;;;;5103086;28;20446;-72
2023/07/23 05:02:06;;;;;;;17.85;16.67;;;14.20;83.00;;;;;;5103793;28;20038;-72
2023/07/23 05:04:33;;;;;;;18.13;16.92;;;14.30;82.90;;;;;;5104428;28;20389;-72
2023/07/23 05:06:59;;;;;;;19.25;17.98;;;14.40;83.40;;;;;;5105497;28;20040;-72
2023/07/23 05:09:25;;;;;;;20.05;18.75;;;14.50;82.60;;;;;;5102440;28;20136;-72
2023/07/23 05:11:50;;;;;;;18.25;16.95;;;14.50;82.80;;;;;;5089285;28;20028;-72
2023/07/23 05:14:16;;;;;;;18.10;16.80;;;14.70;82.00;;;;;;5107354;28;20035;-72
2023/07/23 05:16:42;;;;;;;20.08;18.42;;;14.80;81.70;;;;;;5100569;27;20525;-72
2023/07/23 05:19:10;;;;;;;18.92;17.52;;;14.70;82.60;;;;;;5104240;28;20034;-72
2023/07/23 05:21:36;;;;;;;18.45;17.13;;;14.90;81.90;;;;;;5104422;28;20481;-72
2023/07/23 05:24:02;;;;;;;18.50;17.10;;;15.00;81.70;;;;;;5089133;28;20028;-72
2023/07/23 05:26:28;;;;;;;20.45;18.33;;;15.00;82.10;;;;;;5101594;28;20028;-72
2023/07/23 05:28:54;;;;;;;18.13;16.73;;;15.10;82.40;;;;;;5102507;28;20377;-72
2023/07/23 05:31:19;;;;;;;17.67;16.48;;;15.20;82.60;;;;;;5105297;28;20040;-72
2023/07/23 05:33:45;;;;;;;19.30;18.00;;;15.20;82.10;;;;;;5104685;28;20040;-72
2023/07/23 05:36:10;;;;;;;19.90;18.60;;;15.30;82.00;;;;;;5104372;28;20034;-72
2023/07/23 05:38:36;;;;;;;19.02;17.70;;;15.50;82.40;;;;;;5102635;28;20050;-72
2023/07/23 05:41:02;;;;;;;19.15;17.77;;;15.50;81.40;;;;;;5108907;28;20024;-72
2023/07/23 05:43:29;;;;;;;19.05;17.85;;;15.60;82.20;;;;;;5113074;28;21480;-72
2023/07/23 05:45:55;;;;;;;18.33;17.02;;;15.70;82.10;;;;;;5109574;27;20135;-72
2023/07/23 05:48:21;;;;;;;18.45;17.25;;;15.80;80.60;;;;;;5111185;27;20134;-72
2023/07/23 05:50:46;;;;;;;18.02;16.73;;;15.90;80.80;;;;;;5106717;28;20439;-73
2023/07/23 05:53:13;;;;;;;18.35;17.15;;;16.00;79.10;;;;;;5112681;28;20081;-72
2023/07/23 05:55:39;;;;;;;18.15;16.75;;;16.10;78.80;;;;;;5111622;28;20031;-71
2023/07/23 05:58:05;;;;;;;18.05;16.85;;;16.10;77.70;;;;;;5110717;27;20085;-72
2023/07/23 06:00:31;;;;;;;17.92;16.80;;;16.30;77.60;;;;;;5112818;28;20027;-72
2023/07/23 06:02:57;;;;;;;18.58;17.25;;;16.40;78.30;;;;;;5108315;27;21149;-71
2023/07/23 06:05:22;;;;;;;18.52;17.42;;;16.50;77.10;;;;;;5107041;28;20397;-71
2023/07/23 06:07:48;;;;;;;18.55;17.25;;;16.60;76.40;;;;;;5110594;27;20027;-72
2023/07/23 06:10:14;;;;;;;18.35;17.17;;;16.70;76.30;;;;;;5110967;28;20053;-72
2023/07/23 06:12:39;;;;;;;18.15;16.85;;;16.80;75.90;;;;;;5109955;27;20040;-72
2023/07/23 06:15:05;;;;;;;16.20;15.20;;;16.90;75.20;;;;;;5112055;28;20524;-72
2023/07/23 06:17:31;;;;;;;16.25;15.15;;;17.00;75.00;;;;;;5111671;27;20030;-72
2023/07/23 06:19:57;;;;;;;15.85;14.93;;;17.20;74.30;;;;;;5111915;28;20028;-72
2023/07/23 06:22:23;;;;;;;15.43;14.43;;;17.40;73.00;;;;;;5105926;28;20043;-72
2023/07/23 06:24:48;;;;;;;14.98;14.00;;;17.50;71.70;;;;;;5113056;28;20452;-72
2023/07/23 06:27:14;;;;;;;16.20;15.07;;;17.60;71.40;;;;;;5112582;28;20032;-72
2023/07/23 06:29:39;;;;;;;15.02;13.82;;;17.70;72.60;;;;;;5090166;28;20031;-72
2023/07/23 06:32:05;;;;;;;15.20;14.15;;;17.80;72.60;;;;;;5113155;27;20045;-72
2023/07/23 06:34:31;;;;;;;15.60;14.52;;;18.00;70.80;;;;;;5108912;27;20027;-72
2023/07/23 06:36:57;;;;;;;14.60;13.70;;;18.10;69.10;;;;;;5110984;27;20385;-70
2023/07/23 06:39:22;;;;;;;15.60;14.35;;;18.30;67.70;;;;;;5111960;28;20043;-70
2023/07/23 06:41:48;;;;;;;15.15;14.13;;;18.40;70.60;;;;;;5110078;27;20553;-70
2023/07/23 06:44:13;;;;;;;16.38;15.35;;;18.50;67.50;;;;;;5091236;28;20036;-74
2023/07/23 06:46:39;;;;;;;16.13;14.93;;;18.60;66.80;;;;;;5111294;27;20106;-74
2023/07/23 06:49:05;;;;;;;16.40;15.18;;;18.80;67.70;;;;;;5110005;27;20115;-75
2023/07/23 06:51:30;;;;;;;15.48;14.38;;;18.80;64.90;;;;;;5074368;28;20071;-75
2023/07/23 06:53:56;;;;;;;15.02;13.93;;;19.00;65.70;;;;;;5103980;28;20063;-75
2023/07/23 06:56:22;;;;;;;15.20;14.13;;;19.40;65.20;;;;;;5073388;28;20479;-75
2023/07/23 06:58:47;;;;;;;15.23;14.23;;;19.50;63.30;;;;;;5109832;27;20031;-75
2023/07/23 07:01:13;;;;;;;15.63;14.63;;;19.60;64.40;;;;;;5073445;28;20050;-75
2023/07/23 07:03:39;;;;;;;13.82;13.00;;;19.70;62.40;;;;;;5108837;28;20496;-75
2023/07/23 07:06:05;;;;;;;14.57;13.68;;;19.80;62.20;;;;;;5108027;28;20537;-74
2023/07/23 07:08:31;;;;;;;14.32;13.20;;;20.00;64.00;;;;;;5087111;28;20032;-74
2023/07/23 07:10:58;;;;;;;14.20;13.05;;;20.10;61.10;;;;;;5107256;28;20070;-74
2023/07/23 07:13:24;;;;;;;21.58;19.70;;;20.20;62.50;;;;;;5107039;28;20110;-74
2023/07/23 07:15:50;;;;;;;15.48;14.38;;;20.20;59.40;;;;;;5105632;28;20110;-75
2023/07/23 07:18:15;;;;;;;13.88;13.00;;;20.30;60.30;;;;;;5104128;28;20043;-78
2023/07/23 07:20:41;;;;;;;13.75;12.95;;;20.50;60.70;;;;;;5089404;28;20055;-75
2023/07/23 07:23:07;;;;;;;14.10;13.15;;;20.70;58.10;;;;;;5104175;28;20030;-75
2023/07/23 07:25:33;;;;;;;13.65;12.75;;;21.00;57.90;;;;;;5104327;28;20023;-75
2023/07/23 07:27:58;;;;;;;14.88;13.93;;;21.30;57.80;;;;;;5107784;28;21343;-75
2023/07/23 07:30:24;;;;;;;14.00;13.05;;;21.40;55.50;;;;;;5107888;28;20040;-75
2023/07/23 07:32:52;;;;;;;14.35;13.55;;;21.80;57.80;;;;;;5106891;27;20039;-75
2023/07/23 07:35:18;;;;;;;13.60;12.80;;;22.00;51.90;;;;;;5106644;27;20076;-75
2023/07/23 07:37:44;;;;;;;14.45;13.40;;;21.90;53.70;;;;;;5090845;28;20760;-75
2023/07/23 07:40:13;;;;;;;13.23;12.18;;;22.00;52.80;;;;;;5105166;28;20111;-74
2023/07/23 07:42:38;;;;;;;13.73;12.93;;;21.70;51.90;;;;;;5090779;28;20114;-74
2023/07/23 07:45:04;;;;;;;13.73;12.80;;;21.60;54.10;;;;;;5106917;28;20110;-74
2023/07/23 07:47:30;;;;;;;13.20;12.40;;;21.50;54.10;;;;;;5108441;28;20787;-75
2023/07/23 07:49:56;;;;;;;13.57;12.48;;;21.40;54.90;;;;;;5107414;28;20118;-77
2023/07/23 07:52:21;;;;;;;13.65;12.52;;;21.30;53.00;;;;;;5088925;28;20055;-75
2023/07/23 07:54:47;;;;;;;14.10;13.15;;;21.40;56.10;;;;;;5088334;28;20027;-75
2023/07/23 07:57:13;;;;;;;14.20;13.30;;;21.70;55.30;;;;;;5102850;28;20051;-76
2023/07/23 07:59:39;;;;;;;13.77;12.90;;;21.80;54.10;;;;;;5087987;28;20030;-75
2023/07/23 08:02:05;;;;;;;13.30;12.27;;;21.80;51.40;;;;;;5102985;28;20495;-77
2023/07/23 08:04:31;;;;;;;13.85;12.77;;;21.90;50.60;;;;;;5104508;28;20042;-77
2023/07/23 08:06:57;;;;;;;15.57;14.60;;;21.80;49.50;;;;;;5089885;28;20119;-78
2023/07/23 08:09:24;;;;;;;17.98;17.08;;;21.90;47.30;;;;;;5086747;28;20118;-78
2023/07/23 08:11:50;;;;;;;17.38;16.40;;;22.30;45.50;;;;;;5108216;27;20015;-76
2023/07/23 08:14:18;;;;;;;17.60;16.65;;;22.50;44.90;;;;;;5089918;28;20032;-76
2023/07/23 08:16:44;;;;;;;127.28;117.07;;;22.60;44.20;;;;;;5102807;28;20101;-76
2023/07/23 08:19:10;;;;;;;17.38;16.45;;;22.70;42.30;;;;;;5107169;28;20032;-76
2023/07/23 08:21:36;;;;;;;16.92;16.08;;;22.80;45.40;;;;;;5104693;28;20032;-76
2023/07/23 08:24:02;;;;;;;18.63;17.73;;;22.90;44.40;;;;;;5104540;28;20053;-76
2023/07/23 08:26:32;;;;;;;41.95;38.60;;;22.90;43.10;;;;;;5085708;28;20034;-77
2023/07/23 08:29:02;;;;;;;22.42;21.40;;;22.90;42.70;;;;;;5092432;28;20019;-77
2023/07/23 08:31:28;;;;;;;16.85;16.05;;;23.20;41.10;;;;;;5082202;28;20036;-77
2023/07/23 08:33:55;;;;;;;48.17;45.00;;;23.40;42.40;;;;;;5108726;28;20027;-76
2023/07/23 08:36:21;;;;;;;33.95;32.45;;;23.40;41.80;;;;;;5106340;28;20055;-77
2023/07/23 08:38:47;;;;;;;25.70;24.38;;;23.60;40.70;;;;;;5108818;28;20599;-76
2023/07/23 08:41:24;;;;;;;27.17;25.98;;;23.60;41.00;;;;;;5073841;28;20020;-76
2023/07/23 08:44:18;;;;;;;28.80;27.50;;;23.50;41.60;;;;;;5108150;28;20024;-76
2023/07/23 08:46:46;;;;;;;29.33;28.00;;;23.60;39.80;;;;;;5084629;28;20063;-76
2023/07/23 08:49:12;;;;;;;29.20;27.90;;;23.60;40.00;;;;;;5107864;28;20108;-75
2023/07/23 08:51:38;;;;;;;41.25;39.35;;;23.70;40.80;;;;;;5107211;28;20023;-76
2023/07/23 08:54:06;;;;;;;47.83;45.72;;;23.70;38.40;;;;;;5089748;28;20023;-75
2023/07/23 08:56:33;;;;;;;56.33;53.92;;;23.90;39.10;;;;;;5105913;28;20113;-75
2023/07/23 08:59:02;;;;;;;31.20;29.80;;;23.70;37.60;;;;;;5108197;28;20028;-76
2023/07/23 09:01:32;;;;;;;36.33;34.47;;;23.70;41.50;;;;;;5107348;28;20035;-76
2023/07/23 09:03:58;;;;;;;35.67;34.10;;;23.70;37.80;;;;;;5088874;28;20032;-76
2023/07/23 09:06:26;;;;;;;30.48;29.13;;;24.10;39.40;;;;;;5104185;28;20062;-77
2023/07/23 09:08:51;;;;;;;35.75;34.22;;;24.30;39.30;;;;;;5106480;28;20028;-76
2023/07/23 09:11:17;;;;;;;36.95;35.33;;;24.30;38.70;;;;;;5108346;28;20035;-76
2023/07/23 09:13:43;;;;;;;30.23;28.92;;;24.80;38.30;;;;;;5099277;28;20024;-75
2023/07/23 09:16:09;;;;;;;43.00;41.20;;;25.10;36.70;;;;;;5108979;28;20019;-76
2023/07/23 09:18:41;;;;;;;100.25;93.88;;;25.00;36.60;;;;;;5110796;27;20032;-77
2023/07/23 09:21:09;;;;;;;36.67;35.17;;;24.90;40.60;;;;;;5104691;28;20381;-76
2023/07/23 09:23:34;;;;;;;37.00;35.35;;;25.30;37.10;;;;;;5109478;28;20019;-76
2023/07/23 09:26:00;;;;;;;44.67;42.88;;;25.30;38.10;;;;;;5106680;28;20118;-76
2023/07/23 09:28:27;;;;;;;83.57;79.57;;;25.10;36.90;;;;;;5091484;28;20067;-76
2023/07/23 09:30:59;;;;;;;50.75;48.45;;;25.30;37.90;;;;;;5105826;28;20039;-75
2023/07/23 09:33:43;;;;;;;107.28;103.28;;;25.60;38.50;;;;;;5106410;28;20032;-76
2023/07/23 09:36:10;;;;;;;40.05;38.15;;;25.60;37.00;;;;;;5085426;28;20105;-76
2023/07/23 09:38:38;;;;;;;202.95;194.00;;;25.60;36.80;;;;;;5102427;27;20039;-77
2023/07/23 09:41:04;;;;;;;115.75;111.45;;;25.30;34.40;;;;;;5098498;28;20020;-76
2023/07/23 09:43:34;;;;;;;156.40;150.82;;;25.20;37.50;;;;;;5106669;28;20519;-76
2023/07/23 09:46:00;;;;;;;77.57;74.65;;;25.10;36.50;;;;;;5106692;28;20492;-77
2023/07/23 09:48:27;;;;;;;187.82;178.90;;;25.50;37.00;;;;;;5104423;28;20043;-77
2023/07/23 09:50:58;;;;;;;73.68;70.75;;;25.60;34.50;;;;;;5101592;28;20028;-77
2023/07/23 09:53:23;;;;;;;;;;;25.90;37.50;;;;;;5103111;28;20038;-77
2023/07/23 09:55:50;;;;;;;150.70;144.90;;;25.90;36.00;;;;;;5101978;28;19911;-77
2023/07/23 09:58:17;;;;;;;200.70;191.35;;;25.70;34.20;;;;;;5106030;28;20043;-77
2023/07/23 10:00:44;;;;;;;187.93;180.07;;;26.20;32.80;;;;;;5086504;28;20042;-77
2023/07/23 10:03:15;;;;;;;116.13;111.68;;;26.00;33.40;;;;;;5105925;28;20054;-77
2023/07/23 10:05:40;;;;;;;139.63;134.45;;;26.30;36.40;;;;;;5103847;28;20088;-77
2023/07/23 10:08:06;;;;;;;140.23;135.13;;;26.90;37.00;;;;;;5104198;28;20031;-77
2023/07/23 10:10:32;;;;;;;158.57;152.45;;;27.00;34.70;;;;;;5105757;28;20055;-77
2023/07/23 10:12:58;;;;;;;166.55;160.30;;;27.20;36.30;;;;;;5105246;28;20031;-77
2023/07/23 10:15:23;;;;;;;229.20;212.93;;;27.00;34.50;;;;;;5104818;28;20039;-77
2023/07/23 10:17:54;;;;;;;116.25;111.85;;;26.80;36.30;;;;;;5090063;28;20732;-77
2023/07/23 10:20:21;;;;;;;125.32;120.47;;;26.30;33.20;;;;;;5101993;28;20848;-77
2023/07/23 10:22:48;;;;;;;105.05;101.13;;;26.40;33.30;;;;;;5089054;28;20046;-77
2023/07/23 10:25:30;;;;;;;159.38;152.20;;;26.70;32.90;;;;;;5086510;28;20438;-77
2023/07/23 10:28:23;;;;;;;97.32;93.78;;;26.60;33.30;;;;;;5104847;28;20059;-77
2023/07/23 10:31:18;;;;;;;99.18;95.40;;;26.90;32.30;;;;;;5109823;28;20034;-77
2023/07/23 10:33:45;;;;;;;94.72;91.18;;;27.70;32.30;;;;;;5109375;28;20039;-77
2023/07/23 10:36:11;;;;;;;106.85;102.65;;;28.10;30.20;;;;;;5091735;28;20028;-78
2023/07/23 10:38:38;;;;;;;192.88;182.85;;;28.10;32.50;;;;;;5107550;28;20092;-77
2023/07/23 10:41:04;;;;;;;358.08;337.98;;;27.30;34.20;;;;;;5109602;28;20032;-78
2023/07/23 10:43:44;;;;;;;225.10;216.25;;;27.10;31.30;;;;;;5106852;28;20023;-78
2023/07/23 10:46:20;;;;;;;138.73;133.57;;;27.40;32.60;;;;;;5107230;28;20019;-77
2023/07/23 10:48:49;;;;;;;151.30;145.85;;;27.60;32.00;;;;;;5089696;28;20046;-77
2023/07/23 10:51:17;;;;;;;118.88;113.78;;;27.60;32.10;;;;;;5105051;28;20499;-78
2023/07/23 10:53:55;;;;;;;196.43;189.15;;;27.50;34.10;;;;;;5090684;28;20055;-77
2023/07/23 10:56:35;;;;;;;155.23;149.50;;;27.80;35.00;;;;;;5109531;28;20400;-77
2023/07/23 10:59:05;;;;;;;265.58;253.68;;;28.10;31.70;;;;;;5085648;28;20043;-77
2023/07/23 11:01:35;;;;;;;189.63;182.98;;;27.70;31.20;;;;;;5105626;28;20461;-77
2023/07/23 11:04:07;;;;;;;235.40;225.95;;;28.50;33.20;;;;;;5090042;28;20034;-77
2023/07/23 11:06:33;;;;;;;188.82;181.52;;;27.90;31.70;;;;;;5109541;28;20038;-78
2023/07/23 11:09:08;;;;;;;225.52;216.73;;;27.90;33.70;;;;;;5107854;27;20397;-77
2023/07/23 11:11:36;;;;;;;391.52;371.73;;;27.80;32.90;;;;;;5105371;27;20039;-77
2023/07/23 11:14:21;;;;;;;304.30;293.20;;;27.60;31.10;;;;;;5108004;27;20027;-77
2023/07/23 11:16:48;;;;;;;277.65;265.90;;;27.60;31.00;;;;;;5107054;28;20100;-77
2023/07/23 11:19:34;;;;;;;319.05;307.02;;;28.10;30.10;;;;;;5106643;28;20508;-77
2023/07/23 11:22:02;;;;;;;1548.47;796.33;;;28.50;32.00;;;;;;5102555;27;20059;-77
2023/07/23 11:24:30;;;;;;;350.98;332.27;;;28.50;29.40;;;;;;5106622;28;20024;-77
2023/07/23 11:27:01;;;;;;;269.83;258.35;;;28.60;30.00;;;;;;5106856;28;20532;-78
2023/07/23 11:29:28;;;;;;;383.05;367.98;;;27.90;31.00;;;;;;5108948;28;20042;-77
2023/07/23 11:31:54;;;;;;;248.85;237.35;;;29.10;30.00;;;;;;5106635;28;20838;-77
2023/07/23 11:34:21;;;;;;;1999.90;999.90;;;29.50;28.40;;;;;;5106249;28;20092;-78
2023/07/23 11:36:52;;;;;;;222.10;212.65;;;29.10;29.50;;;;;;5107474;28;20028;-78
2023/07/23 11:39:19;;;;;;;1999.90;999.90;;;29.30;29.90;;;;;;5107076;27;20032;-77
2023/07/23 11:41:44;;;;;;;397.55;379.77;;;28.70;29.40;;;;;;5102286;28;20547;-77
2023/07/23 11:44:11;;;;;;;341.50;327.58;;;28.80;29.30;;;;;;5105480;28;20039;-77
2023/07/23 11:46:41;;;;;;;379.33;361.90;;;28.30;31.10;;;;;;5107993;28;20036;-77
2023/07/23 11:49:07;;;;;;;;;;;28.00;31.70;;;;;;5107565;28;20039;-77
2023/07/23 11:51:33;;;;;;;377.48;361.83;;;28.00;30.40;;;;;;5104209;28;20011;-77
2023/07/23 11:54:10;;;;;;;346.52;333.13;;;27.90;31.70;;;;;;5087829;28;20032;-77
2023/07/23 11:56:46;;;;;;;396.15;380.63;;;28.40;33.30;;;;;;5092406;28;20032;-78
2023/07/23 11:59:14;;;;;;;1999.90;999.90;;;29.40;29.60;;;;;;5103251;28;20028;-77
2023/07/23 12:01:40;;;;;;;1999.90;999.90;;;29.80;28.60;;;;;;5087154;28;20100;-77
2023/07/23 12:04:07;;;;;;;1999.90;999.90;;;29.90;28.60;;;;;;5108369;28;20037;-78
2023/07/23 12:06:35;;;;;;;1999.90;999.90;;;29.80;28.10;;;;;;5088367;28;20114;-77
2023/07/23 12:09:05;;;;;;;1999.90;999.90;;;30.40;28.70;;;;;;5104122;28;20023;-77
2023/07/23 12:11:32;;;;;;;1999.90;999.90;;;30.10;27.00;;;;;;5086346;28;20028;-77
2023/07/23 12:14:02;;;;;;;1999.90;999.90;;;30.50;27.80;;;;;;5072766;28;20046;-77
2023/07/23 12:16:47;;;;;;;1999.90;999.90;;;32.20;24.20;;;;;;5123042;28;20036;-78
2023/07/23 12:19:14;;;;;;;1999.90;999.90;;;30.80;24.20;;;;;;5107950;28;20027;-77
2023/07/23 12:21:47;;;;;;;1999.90;999.90;;;29.30;28.10;;;;;;5116774;28;20039;-77
2023/07/23 12:24:15;;;;;;;1999.90;999.90;;;29.00;28.50;;;;;;5105863;28;20016;-77